createdAt,value
2023-01-30T00:04:12.579Z,71.20
2023-01-30T00:09:17.056Z,71.17
2023-01-30T00:14:19.470Z,71.37
2023-01-30T00:19:22.004Z,71.54
2023-01-30T00:24:24.121Z,71.58
2023-01-30T00:29:26.194Z,71.69
2023-01-30T00:34:35.443Z,71.91
2023-01-30T00:39:40.753Z,72.24
2023-01-30T00:45:01.659Z,72.65
2023-01-30T00:50:05.552Z,73.09
2023-01-30T00:55:09.005Z,74.14
2023-01-30T01:00:11.794Z,75.06
2023-01-30T01:05:15.878Z,75.75
2023-01-30T01:10:18.229Z,76.27
2023-01-30T01:15:22.402Z,76.68
2023-01-30T01:20:24.453Z,77.40
2023-01-30T01:25:26.432Z,77.82
2023-01-30T01:30:28.313Z,78.10
2023-01-30T01:35:30.156Z,78.43
2023-01-30T01:40:50.647Z,78.50
2023-01-30T01:45:58.632Z,78.40
2023-01-30T01:51:17.713Z,78.61
2023-01-30T01:56:20.939Z,79.21
2023-01-30T02:01:23.097Z,79.50
2023-01-30T02:06:28.335Z,79.42
2023-01-30T02:11:47.860Z,79.30
2023-01-30T02:16:49.755Z,79.25
2023-01-30T02:22:18.458Z,79.40
2023-01-30T02:27:34.232Z,79.30
2023-01-30T02:32:56.199Z,79.30
2023-01-30T02:38:10.780Z,79.15
2023-01-30T02:43:46.748Z,79.00
2023-01-30T02:48:57.656Z,78.83
2023-01-30T02:54:00.585Z,78.46
2023-01-30T02:59:08.535Z,78.34
2023-01-30T03:04:32.868Z,78.26
2023-01-30T03:09:52.574Z,77.94
2023-01-30T03:15:17.901Z,77.78
2023-01-30T03:20:23.896Z,77.98
2023-01-30T03:25:29.410Z,78.01
2023-01-30T03:30:31.703Z,77.99
2023-01-30T03:35:41.382Z,78.26
2023-01-30T03:40:45.003Z,78.14
2023-01-30T03:45:47.049Z,77.87
2023-01-30T03:50:49.367Z,77.78
2023-01-30T03:55:51.772Z,77.53
2023-01-30T04:00:57.820Z,77.20
2023-01-30T04:06:00.882Z,76.96
2023-01-30T04:11:04.260Z,76.66
2023-01-30T04:16:17.878Z,76.56
2023-01-30T04:21:46.429Z,76.21
2023-01-30T04:26:48.634Z,76.04
2023-01-30T04:31:51.240Z,75.83
2023-01-30T04:37:02.889Z,75.75
2023-01-30T04:42:05.691Z,75.67
2023-01-30T04:47:13.069Z,75.51
2023-01-30T04:52:16.256Z,75.15
2023-01-30T04:57:18.189Z,75.00
2023-01-30T05:02:23.936Z,74.89
2023-01-30T05:07:29.150Z,74.94
2023-01-30T05:12:39.387Z,74.85
2023-01-30T05:17:43.762Z,74.69
2023-01-30T05:22:46.609Z,74.50
2023-01-30T05:27:48.744Z,74.32
2023-01-30T05:32:50.803Z,74.17
2023-01-30T05:37:53.014Z,74.02
2023-01-30T05:42:54.931Z,73.92
2023-01-30T05:48:01.326Z,73.79
2023-01-30T05:53:03.659Z,73.75
2023-01-30T05:58:06.185Z,73.68
2023-01-30T06:03:08.074Z,73.70
2023-01-30T06:08:10.048Z,73.66
2023-01-30T06:13:12.100Z,73.60
2023-01-30T06:18:14.039Z,73.73
2023-01-30T06:23:16.370Z,73.78
2023-01-30T06:28:19.184Z,73.68
2023-01-30T06:33:21.141Z,73.45
2023-01-30T06:38:23.047Z,73.23
2023-01-30T06:43:25.191Z,73.12
2023-01-30T06:48:27.451Z,73.15
2023-01-30T06:53:32.329Z,72.90
2023-01-30T06:58:34.157Z,72.67
2023-01-30T07:03:36.047Z,72.68
2023-01-30T07:08:37.993Z,72.73
2023-01-30T07:13:39.846Z,72.61
2023-01-30T07:18:42.074Z,72.45
2023-01-30T07:23:44.120Z,72.32
2023-01-30T07:28:47.146Z,72.11
2023-01-30T07:33:49.386Z,72.30
2023-01-30T07:38:51.603Z,72.22
2023-01-30T07:43:54.058Z,72.12
2023-01-30T07:48:56.649Z,71.94
2023-01-30T07:54:02.007Z,71.88
2023-01-30T07:59:05.701Z,71.95
2023-01-30T08:04:07.694Z,72.24
2023-01-30T08:09:10.166Z,72.50
2023-01-30T08:14:12.266Z,72.59
2023-01-30T08:19:14.649Z,71.95
2023-01-30T08:24:16.914Z,71.23
2023-01-30T08:29:19.083Z,70.02
2023-01-30T08:34:21.032Z,69.32
2023-01-30T08:39:22.903Z,69.58
2023-01-30T08:44:25.221Z,69.85
2023-01-30T08:49:27.254Z,70.07
2023-01-30T08:54:31.375Z,70.21
2023-01-30T08:59:35.249Z,70.43
2023-01-30T09:04:37.384Z,70.47
2023-01-30T09:09:39.344Z,70.59
2023-01-30T09:14:41.218Z,70.49
2023-01-30T09:19:43.496Z,70.36
2023-01-30T09:24:45.492Z,70.11
2023-01-30T09:29:47.896Z,70.00
2023-01-30T09:34:50.696Z,70.15
2023-01-30T09:39:58.004Z,70.37
2023-01-30T09:45:24.370Z,71.62
2023-01-30T09:50:35.752Z,73.20
2023-01-30T09:55:41.799Z,74.32
2023-01-30T10:00:44.150Z,75.10
2023-01-30T10:05:53.827Z,75.72
2023-01-30T10:11:16.949Z,76.29
2023-01-30T10:16:28.359Z,77.06
2023-01-30T10:22:16.097Z,77.55
2023-01-30T10:27:20.824Z,77.84
2023-01-30T10:32:46.452Z,77.59
2023-01-30T10:37:59.529Z,77.33
2023-01-30T10:43:26.043Z,76.85
2023-01-30T10:48:45.726Z,76.26
2023-01-30T10:54:02.813Z,75.80
2023-01-30T10:59:20.312Z,75.76
2023-01-30T11:04:37.209Z,75.67
2023-01-30T11:09:44.584Z,75.47
2023-01-30T11:14:52.948Z,75.87
2023-01-30T11:19:56.892Z,76.12
2023-01-30T11:25:25.944Z,76.21
2023-01-30T11:30:33.714Z,76.26
2023-01-30T11:35:42.678Z,77.39
2023-01-30T11:40:45.408Z,77.97
2023-01-30T11:45:50.152Z,78.33
2023-01-30T11:50:58.394Z,78.46
2023-01-30T11:56:09.121Z,77.82
2023-01-30T12:01:13.405Z,77.14
2023-01-30T12:06:24.311Z,76.22
2023-01-30T12:11:32.178Z,75.61
2023-01-30T12:17:00.627Z,75.71
2023-01-30T12:22:24.636Z,75.81
2023-01-30T12:27:38.996Z,76.61
2023-01-30T12:32:42.196Z,77.63
2023-01-30T12:38:10.821Z,78.92
2023-01-30T12:43:39.452Z,80.15
2023-01-30T12:49:07.947Z,80.54
2023-01-30T12:54:35.731Z,80.94
2023-01-30T13:00:00.418Z,81.00
2023-01-30T13:05:26.344Z,80.88
2023-01-30T13:10:39.825Z,80.40
2023-01-30T13:16:07.686Z,79.68
2023-01-30T13:21:21.333Z,78.82
2023-01-30T13:26:28.812Z,78.27
2023-01-30T13:31:36.809Z,77.71
2023-01-30T13:37:04.165Z,77.23
2023-01-30T13:42:13.428Z,76.41
2023-01-30T13:47:46.449Z,75.38
2023-01-30T13:52:55.387Z,74.45
2023-01-30T13:58:26.452Z,74.09
2023-01-30T14:03:40.611Z,73.90
2023-01-30T14:08:59.600Z,73.42
2023-01-30T14:14:21.764Z,73.50
2023-01-30T14:19:54.079Z,73.51
2023-01-30T14:25:35.418Z,73.64
2023-01-30T14:30:38.735Z,73.76
2023-01-30T14:35:40.942Z,74.02
2023-01-30T14:40:58.343Z,74.36
2023-01-30T14:46:25.109Z,74.36
2023-01-30T14:51:39.338Z,74.36
2023-01-30T14:57:06.179Z,74.69
2023-01-30T15:02:17.184Z,74.63
2023-01-30T15:07:43.869Z,74.34
2023-01-30T15:13:27.949Z,74.11
2023-01-30T15:19:03.873Z,74.16
2023-01-30T15:24:45.085Z,74.38
2023-01-30T15:30:36.045Z,74.44
2023-01-30T15:35:43.969Z,74.53
2023-01-30T15:40:49.577Z,74.66
2023-01-30T15:46:25.355Z,74.74
2023-01-30T15:51:30.758Z,74.76
2023-01-30T15:56:33.336Z,74.66
2023-01-30T16:01:35.469Z,74.71
2023-01-30T16:06:38.323Z,74.68
2023-01-30T16:11:42.842Z,74.72
2023-01-30T16:17:11.917Z,74.83
2023-01-30T16:22:20.920Z,74.82
2023-01-30T16:27:30.886Z,75.30
2023-01-30T16:32:33.708Z,75.45
2023-01-30T16:37:36.404Z,75.41
2023-01-30T16:42:40.887Z,75.09
2023-01-30T16:47:42.880Z,75.40
2023-01-30T16:52:47.850Z,75.75
2023-01-30T16:57:55.437Z,75.95
2023-01-30T17:03:03.867Z,76.26
2023-01-30T17:08:09.053Z,76.46
2023-01-30T17:13:43.397Z,76.83
2023-01-30T17:18:58.369Z,77.29
2023-01-30T17:24:03.176Z,77.46
2023-01-30T17:29:07.228Z,77.69
2023-01-30T17:34:12.402Z,77.80
2023-01-30T17:39:18.183Z,77.94
2023-01-30T17:44:21.237Z,78.15
2023-01-30T17:49:26.443Z,78.43
2023-01-30T17:54:30.182Z,78.32
2023-01-30T17:59:32.737Z,78.30
2023-01-30T18:04:34.705Z,78.22
2023-01-30T18:09:36.734Z,78.17
2023-01-30T18:14:38.665Z,78.00
2023-01-30T18:19:40.658Z,77.97
2023-01-30T18:24:42.760Z,77.88
2023-01-30T18:29:45.452Z,77.93
2023-01-30T18:34:47.472Z,77.82
2023-01-30T18:39:50.194Z,77.81
2023-01-30T18:44:52.286Z,77.61
2023-01-30T18:49:54.344Z,77.70
2023-01-30T18:54:56.432Z,77.47
2023-01-30T18:59:58.345Z,77.19
2023-01-30T19:05:00.689Z,77.07
2023-01-30T19:10:03.961Z,76.79
2023-01-30T19:15:06.549Z,76.62
2023-01-30T19:20:10.939Z,76.55
2023-01-30T19:25:13.252Z,76.26
2023-01-30T19:30:15.459Z,76.37
2023-01-30T19:35:18.140Z,76.50
2023-01-30T19:40:20.710Z,76.21
2023-01-30T19:45:23.489Z,76.14
2023-01-30T19:50:25.401Z,76.32
2023-01-30T19:55:27.310Z,76.77
2023-01-30T20:00:29.215Z,76.55
2023-01-30T20:05:31.946Z,76.38
2023-01-30T20:10:33.955Z,76.30
2023-01-30T20:15:39.482Z,76.67
2023-01-30T20:20:41.480Z,77.28
2023-01-30T20:25:43.408Z,78.10
2023-01-30T20:30:45.451Z,79.26
2023-01-30T20:35:47.599Z,79.43
2023-01-30T20:40:49.827Z,79.78
2023-01-30T20:46:03.376Z,80.14
2023-01-30T20:51:11.317Z,80.50
2023-01-30T20:56:13.285Z,80.28
2023-01-30T21:01:18.604Z,80.02
2023-01-30T21:06:42.756Z,80.09
2023-01-30T21:11:48.568Z,79.72
2023-01-30T21:16:50.652Z,79.26
2023-01-30T21:21:55.336Z,79.42
2023-01-30T21:26:57.758Z,79.45
2023-01-30T21:31:59.959Z,79.44
2023-01-30T21:37:20.748Z,79.24
2023-01-30T21:42:48.712Z,79.06
2023-01-30T21:47:51.943Z,78.75
2023-01-30T21:52:54.287Z,78.67
2023-01-30T21:57:56.784Z,78.41
2023-01-30T22:02:58.676Z,78.07
2023-01-30T22:08:00.571Z,78.04
2023-01-30T22:13:06.236Z,78.14
2023-01-30T22:18:08.291Z,78.19
2023-01-30T22:23:10.615Z,78.69
2023-01-30T22:28:12.488Z,79.30
2023-01-30T22:33:14.890Z,79.78
2023-01-30T22:38:17.072Z,80.17
2023-01-30T22:43:19.049Z,80.33
2023-01-30T22:48:21.016Z,81.46
2023-01-30T22:53:23.667Z,81.27
2023-01-30T22:58:25.900Z,82.42
2023-01-30T23:03:28.193Z,82.96
2023-01-30T23:08:32.614Z,83.35
2023-01-30T23:13:39.099Z,83.27
2023-01-30T23:18:58.224Z,83.56
2023-01-30T23:24:02.205Z,83.97
2023-01-30T23:29:13.864Z,83.92
2023-01-30T23:34:18.561Z,84.23
2023-01-30T23:39:20.753Z,84.40
2023-01-30T23:44:23.270Z,84.56
2023-01-30T23:49:25.431Z,84.73
2023-01-30T23:54:30.054Z,84.70
2023-01-30T23:59:43.665Z,85.25
